createdAt,value
2018-08-03T05:05:13.883Z,7.40
2018-08-03T05:10:17.977Z,7.33
2018-08-03T05:15:21.493Z,7.17
2018-08-03T05:20:24.796Z,10.73
2018-08-03T05:25:28.139Z,10.80
2018-08-03T05:30:31.480Z,9.57
2018-08-03T05:35:36.806Z,10.17
2018-08-03T05:40:40.145Z,8.33
2018-08-03T05:45:44.257Z,10.03
2018-08-03T05:50:47.591Z,10.50
2018-08-03T05:56:08.073Z,8.23
2018-08-03T06:01:11.407Z,7.43
2018-08-03T06:06:15.513Z,9.20
2018-08-03T06:11:18.850Z,11.07
2018-08-03T06:16:54.977Z,11.37
2018-08-03T06:21:58.506Z,11.97
2018-08-03T06:27:01.877Z,11.80
2018-08-03T06:32:05.255Z,13.70
2018-08-03T06:37:08.594Z,10.23
2018-08-03T06:42:12.702Z,13.40
2018-08-03T06:47:16.036Z,13.97
2018-08-03T06:52:20.143Z,13.10
2018-08-03T06:57:23.491Z,9.40
2018-08-03T07:02:26.829Z,12.50
2018-08-03T07:07:30.162Z,11.57
2018-08-03T07:12:33.497Z,11.63
2018-08-03T07:17:36.828Z,12.27
2018-08-03T07:22:40.927Z,10.40
2018-08-03T07:27:44.837Z,12.17
2018-08-03T07:32:48.170Z,12.27
2018-08-03T07:37:51.506Z,9.47
2018-08-03T07:42:55.670Z,9.37
2018-08-03T07:47:58.970Z,9.23
2018-08-03T07:53:02.306Z,11.10
2018-08-03T07:58:05.648Z,9.27
2018-08-03T08:03:09.023Z,11.47
2018-08-03T08:08:12.350Z,11.97
2018-08-03T08:13:15.691Z,10.33
2018-08-03T08:18:19.048Z,11.90
2018-08-03T08:23:22.387Z,10.37
2018-08-03T08:28:25.710Z,11.13
2018-08-03T08:33:29.038Z,8.13
2018-08-03T08:38:32.418Z,8.87
2018-08-03T08:43:35.816Z,11.23
2018-08-03T08:48:39.116Z,10.10
2018-08-03T08:53:42.453Z,10.23
2018-08-03T08:58:45.791Z,11.80
2018-08-03T09:03:49.134Z,11.13
2018-08-03T09:08:52.471Z,9.10
2018-08-03T09:13:55.809Z,10.60
2018-08-03T09:18:59.134Z,12.27
2018-08-03T09:24:02.477Z,12.87
2018-08-03T09:29:06.578Z,13.23
2018-08-03T09:34:09.915Z,11.67
2018-08-03T09:39:13.259Z,10.43
2018-08-03T09:44:16.594Z,12.17
2018-08-03T09:49:20.033Z,12.17
2018-08-03T09:54:23.303Z,13.43
2018-08-03T09:59:26.649Z,13.37
2018-08-03T10:04:29.987Z,10.00
2018-08-03T10:09:33.331Z,10.80
2018-08-03T10:14:36.678Z,11.47
2018-08-03T10:19:40.015Z,9.87
2018-08-03T10:24:43.939Z,10.60
2018-08-03T10:29:47.471Z,10.53
2018-08-03T10:34:50.754Z,10.73
2018-08-03T10:39:56.054Z,11.47
2018-08-03T10:44:59.449Z,10.30
2018-08-03T10:50:02.803Z,10.33
2018-08-03T10:55:06.143Z,9.53
2018-08-03T11:00:09.487Z,11.20
2018-08-03T11:05:12.834Z,10.40
2018-08-03T11:10:16.162Z,10.30
2018-08-03T11:15:19.503Z,8.93
2018-08-03T11:20:22.842Z,10.10
2018-08-03T11:25:26.179Z,8.87
2018-08-03T11:30:30.281Z,7.87
2018-08-03T11:35:33.618Z,9.53
2018-08-03T11:40:37.726Z,8.18
2018-08-03T11:45:41.054Z,6.40
2018-08-03T11:50:45.187Z,7.80
2018-08-03T11:55:49.281Z,7.57
2018-08-03T12:00:52.681Z,6.70
2018-08-03T12:05:56.726Z,8.02
2018-08-03T12:11:00.072Z,6.62
2018-08-03T12:16:04.177Z,8.38
2018-08-03T12:21:07.508Z,6.93
2018-08-03T12:26:10.847Z,9.85
2018-08-03T12:31:14.217Z,8.05
2018-08-03T12:36:17.538Z,7.57
2018-08-03T12:41:20.875Z,9.38
2018-08-03T12:46:24.202Z,7.57
2018-08-03T12:51:27.532Z,8.93
2018-08-03T12:56:30.874Z,9.02
2018-08-03T13:01:34.986Z,9.45
2018-08-03T13:06:38.311Z,6.95
2018-08-03T13:11:41.641Z,6.50
2018-08-03T13:16:44.989Z,6.95
2018-08-03T13:21:48.322Z,8.10
2018-08-03T13:26:51.656Z,6.72
2018-08-03T13:31:55.022Z,12.40
2018-08-03T13:36:58.350Z,8.40
2018-08-03T13:42:01.688Z,6.57
2018-08-03T13:47:05.014Z,7.22
2018-08-03T13:52:08.344Z,8.18
2018-08-03T13:57:11.692Z,11.00
2018-08-03T14:02:15.038Z,6.62
2018-08-03T14:07:18.397Z,12.23
2018-08-03T14:12:22.504Z,7.60
2018-08-03T14:17:25.832Z,7.07
2018-08-03T14:22:29.930Z,6.45
2018-08-03T14:27:33.274Z,6.80
2018-08-03T14:32:36.605Z,7.10
2018-08-03T14:37:40.711Z,6.70
2018-08-03T14:42:44.053Z,7.68
2018-08-03T14:47:47.382Z,7.37
2018-08-03T14:52:50.718Z,8.00
2018-08-03T14:57:54.053Z,7.90
2018-08-03T15:02:57.390Z,6.22
2018-08-03T15:08:01.489Z,7.45
2018-08-03T15:13:04.835Z,7.10
2018-08-03T15:18:08.966Z,6.68
2018-08-03T15:23:13.067Z,6.57
2018-08-03T15:28:16.407Z,11.57
2018-08-03T15:33:20.502Z,6.65
2018-08-03T15:38:23.847Z,7.10
2018-08-03T15:43:27.950Z,7.32
2018-08-03T15:48:31.274Z,7.50
2018-08-03T15:53:34.603Z,6.55
2018-08-03T15:58:38.752Z,6.35
2018-08-03T16:03:42.043Z,6.75
2018-08-03T16:08:46.132Z,6.70
2018-08-03T16:13:49.458Z,7.65
2018-08-03T16:18:52.841Z,6.28
2018-08-03T16:23:56.906Z,6.15
2018-08-03T16:29:00.234Z,6.97
2018-08-03T16:34:03.765Z,7.18
2018-08-03T16:39:07.881Z,7.32
2018-08-03T16:44:11.974Z,6.65
2018-08-03T16:49:15.314Z,7.30
2018-08-03T16:54:18.989Z,6.72
2018-08-03T16:59:22.819Z,6.87
2018-08-03T17:04:26.522Z,7.32
2018-08-03T17:09:30.150Z,7.85
2018-08-03T17:14:33.960Z,7.47
2018-08-03T17:19:37.561Z,6.32
2018-08-03T17:24:42.680Z,6.85
2018-08-03T17:29:46.561Z,6.18
2018-08-03T17:34:50.304Z,7.18
2018-08-03T17:39:53.892Z,6.55
2018-08-03T17:44:57.587Z,6.20
2018-08-03T17:50:01.230Z,7.78
2018-08-03T17:55:04.754Z,6.82
2018-08-03T18:00:08.345Z,6.57
2018-08-03T18:05:12.449Z,6.57
2018-08-03T18:10:15.787Z,6.97
2018-08-03T18:15:19.882Z,7.57
2018-08-03T18:20:23.222Z,6.15
2018-08-03T18:25:33.974Z,6.30
2018-08-03T18:30:37.308Z,7.47
2018-08-03T18:35:40.642Z,6.15
2018-08-03T18:40:44.756Z,7.28
2018-08-03T18:45:58.413Z,6.40
2018-08-03T18:51:01.766Z,7.22
2018-08-03T18:56:05.099Z,7.30
2018-08-03T19:01:08.441Z,7.15
2018-08-03T19:06:11.771Z,6.37
2018-08-03T19:11:15.251Z,6.45
2018-08-03T19:16:18.585Z,6.85
2018-08-03T19:21:22.331Z,6.35
2018-08-03T19:26:26.449Z,7.57
2018-08-03T19:31:31.787Z,7.78
2018-08-03T19:36:49.268Z,9.00
2018-08-03T19:41:54.630Z,6.95
2018-08-03T19:46:59.107Z,6.03
2018-08-03T19:52:03.477Z,6.82
2018-08-03T19:57:08.294Z,6.90
2018-08-03T20:02:15.131Z,7.68
2018-08-03T20:07:21.358Z,8.30
2018-08-03T20:12:25.259Z,8.27
2018-08-03T20:17:29.711Z,7.43
2018-08-03T20:22:44.367Z,8.07
2018-08-03T20:27:48.455Z,6.97
2018-08-03T20:32:51.982Z,6.60
2018-08-03T20:37:55.479Z,6.18
2018-08-03T20:42:58.798Z,7.37
2018-08-03T20:48:02.172Z,13.85
2018-08-03T20:53:05.517Z,10.63
2018-08-03T20:58:08.847Z,9.82
2018-08-03T21:03:12.182Z,8.70
2018-08-03T21:08:15.515Z,8.60
2018-08-03T21:13:18.852Z,10.23
2018-08-03T21:18:22.201Z,10.20
2018-08-03T21:23:25.559Z,11.35
2018-08-03T21:28:28.905Z,10.90
2018-08-03T21:33:32.242Z,11.57
2018-08-03T21:38:35.569Z,10.07
2018-08-03T21:43:38.900Z,10.15
2018-08-03T21:48:43.015Z,14.13
2018-08-03T21:53:47.113Z,11.57
2018-08-03T21:58:50.455Z,11.07
2018-08-03T22:03:53.916Z,14.10
2018-08-03T22:08:57.242Z,8.77
2018-08-03T22:14:00.564Z,8.13
2018-08-03T22:19:03.897Z,9.40
2018-08-03T22:24:07.274Z,10.70
2018-08-03T22:29:10.574Z,9.57
